LNR032 KEYW-KTEB
Flight info
| Callsign | LNR032 |
|---|---|
| Flight time | N/A |
| Altitude | 43000 |
| Route | BUFTT1 MATLK Q87 ZERBO/N0511F410 Q87 VIYAP SWNGR JAIKE4 |
| Aircraft | GLF6/M-SBDE2E3FGHIJ4J5M1RWXY/LB1D1 |
Departure
| Time | 2026-05-06 16:03 |
|---|---|
| Airport | Key West International Airport (KEYW) |
Arrival
| Time | N/A |
|---|---|
| Airport | Teterboro Airport (KTEB) |
| Time | Latitude | Longitude | Altitude | Speed | Heading |
|---|---|---|---|---|---|
| 2026-05-06 15:49 | 24.55438 | -81.75743 | 14 ft | 0 kts | 311° |
| 2026-05-06 15:58 | 24.55474 | -81.75769 | 14 ft | 12 kts | 329° |
| 2026-05-06 15:59 | 24.55490 | -81.75778 | 14 ft | 0 kts | 334° |
| 2026-05-06 15:59 | 24.55530 | -81.75802 | 13 ft | 11 kts | 296° |
| 2026-05-06 15:59 | 24.55527 | -81.75900 | 11 ft | 15 kts | 267° |
| 2026-05-06 16:00 | 24.55522 | -81.76026 | 8 ft | 17 kts | 269° |
| 2026-05-06 16:00 | 24.55523 | -81.76164 | 7 ft | 18 kts | 270° |
| 2026-05-06 16:00 | 24.55522 | -81.76301 | 7 ft | 18 kts | 269° |
| 2026-05-06 16:00 | 24.55521 | -81.76436 | 6 ft | 18 kts | 269° |
| 2026-05-06 16:01 | 24.55519 | -81.76572 | 6 ft | 17 kts | 269° |
| 2026-05-06 16:01 | 24.55533 | -81.76647 | 7 ft | 0 kts | 342° |
| 2026-05-06 16:01 | 24.55537 | -81.76648 | 7 ft | 5 kts | 344° |
| 2026-05-06 16:02 | 24.55599 | -81.76652 | 8 ft | 8 kts | 27° |
| 2026-05-06 16:02 | 24.55607 | -81.76535 | 7 ft | 40 kts | 90° |
| 2026-05-06 16:02 | 24.55615 | -81.75934 | 10 ft | 116 kts | 90° |
| 2026-05-06 16:02 | 24.55604 | -81.74851 | 194 ft | 160 kts | 91° |
| 2026-05-06 16:03 | 24.55752 | -81.73572 | 799 ft | 180 kts | 74° |
| 2026-05-06 16:03 | 24.56463 | -81.72372 | 1486 ft | 208 kts | 39° |
| 2026-05-06 16:03 | 24.57893 | -81.71793 | 2368 ft | 233 kts | 3° |
| 2026-05-06 16:03 | 24.59504 | -81.72037 | 3691 ft | 233 kts | 348° |
| 2026-05-06 16:04 | 24.61119 | -81.72208 | 5022 ft | 235 kts | 360° |
| 2026-05-06 16:04 | 24.62768 | -81.72136 | 6270 ft | 239 kts | 4° |
| 2026-05-06 16:04 | 24.64430 | -81.72065 | 7533 ft | 238 kts | 2° |
| 2026-05-06 16:04 | 24.66105 | -81.72026 | 8695 ft | 244 kts | 1° |
| 2026-05-06 16:05 | 24.67887 | -81.71973 | 9503 ft | 268 kts | 2° |
| 2026-05-06 16:05 | 24.69762 | -81.71867 | 10684 ft | 268 kts | 7° |
| 2026-05-06 16:05 | 24.71568 | -81.71325 | 11861 ft | 272 kts | 21° |
| 2026-05-06 16:05 | 24.73238 | -81.70335 | 13030 ft | 277 kts | 33° |
| 2026-05-06 16:06 | 24.74699 | -81.68881 | 13881 ft | 290 kts | 49° |
| 2026-05-06 16:06 | 24.75919 | -81.67124 | 15049 ft | 289 kts | 46° |
| 2026-05-06 16:06 | 24.77386 | -81.65505 | 15635 ft | 312 kts | 40° |
| 2026-05-06 16:06 | 24.79063 | -81.63831 | 16112 ft | 336 kts | 40° |
| 2026-05-06 16:07 | 24.80702 | -81.62000 | 17401 ft | 336 kts | 44° |
| 2026-05-06 16:07 | 24.82277 | -81.60044 | 18401 ft | 346 kts | 44° |
| 2026-05-06 16:07 | 24.83950 | -81.58121 | 19311 ft | 350 kts | 39° |
| 2026-05-06 16:07 | 24.85731 | -81.56262 | 20268 ft | 355 kts | 40° |
| 2026-05-06 16:08 | 24.87512 | -81.54341 | 21211 ft | 361 kts | 40° |
| 2026-05-06 16:08 | 24.89309 | -81.52367 | 22129 ft | 367 kts | 40° |
| 2026-05-06 16:08 | 24.91156 | -81.50393 | 23054 ft | 373 kts | 39° |
| 2026-05-06 16:08 | 24.93044 | -81.48391 | 23920 ft | 379 kts | 40° |
| 2026-05-06 16:09 | 24.94932 | -81.46340 | 24681 ft | 384 kts | 40° |
| 2026-05-06 16:09 | 24.96851 | -81.44252 | 25448 ft | 390 kts | 40° |
| 2026-05-06 16:09 | 24.98803 | -81.42151 | 26201 ft | 395 kts | 40° |
| 2026-05-06 16:09 | 25.00785 | -81.40017 | 26952 ft | 400 kts | 40° |
| 2026-05-06 16:10 | 25.02788 | -81.37850 | 27669 ft | 408 kts | 40° |
| 2026-05-06 16:10 | 25.04843 | -81.35640 | 27985 ft | 424 kts | 40° |
| 2026-05-06 16:10 | 25.06935 | -81.33343 | 28889 ft | 427 kts | 41° |
| 2026-05-06 16:10 | 25.09076 | -81.31030 | 29566 ft | 435 kts | 40° |
| 2026-05-06 16:11 | 25.11272 | -81.28692 | 30299 ft | 440 kts | 40° |
| 2026-05-06 16:11 | 25.13453 | -81.26317 | 31107 ft | 440 kts | 40° |
| 2026-05-06 16:11 | 25.15646 | -81.23920 | 31661 ft | 449 kts | 39° |
| 2026-05-06 16:11 | 25.17900 | -81.21498 | 32275 ft | 454 kts | 39° |
| 2026-05-06 16:12 | 25.20173 | -81.19034 | 32923 ft | 460 kts | 39° |
| 2026-05-06 16:12 | 25.22464 | -81.16532 | 33524 ft | 465 kts | 39° |
| 2026-05-06 16:12 | 25.24788 | -81.14005 | 34140 ft | 471 kts | 39° |
| 2026-05-06 16:12 | 25.27137 | -81.11463 | 34668 ft | 476 kts | 39° |
| 2026-05-06 16:13 | 25.29512 | -81.08887 | 35203 ft | 481 kts | 39° |
| 2026-05-06 16:13 | 25.31920 | -81.06298 | 35710 ft | 484 kts | 37° |
| 2026-05-06 16:13 | 25.34582 | -81.04040 | 36175 ft | 482 kts | 28° |
| 2026-05-06 16:13 | 25.37480 | -81.02191 | 36675 ft | 481 kts | 21° |
| 2026-05-06 16:14 | 25.40533 | -81.00801 | 37130 ft | 480 kts | 13° |
| 2026-05-06 16:14 | 25.43762 | -80.99858 | 37593 ft | 479 kts | 6° |
| 2026-05-06 16:14 | 25.47063 | -80.99398 | 38036 ft | 478 kts | 359° |
| 2026-05-06 16:14 | 25.50395 | -80.99259 | 38464 ft | 481 kts | 358° |
| 2026-05-06 16:15 | 25.53760 | -80.99109 | 38872 ft | 485 kts | 358° |
| 2026-05-06 16:15 | 25.57151 | -80.98958 | 39252 ft | 488 kts | 358° |
| 2026-05-06 16:15 | 25.60559 | -80.98816 | 39623 ft | 491 kts | 358° |
| 2026-05-06 16:15 | 25.63984 | -80.98672 | 39993 ft | 494 kts | 358° |
| 2026-05-06 16:16 | 25.67444 | -80.98526 | 40094 ft | 504 kts | 358° |
| 2026-05-06 16:16 | 25.70951 | -80.98377 | 40099 ft | 501 kts | 358° |
| 2026-05-06 16:16 | 25.74395 | -80.98217 | 40082 ft | 490 kts | 358° |
| 2026-05-06 16:16 | 25.77763 | -80.98068 | 40079 ft | 478 kts | 358° |
| 2026-05-06 16:17 | 25.81044 | -80.97932 | 40073 ft | 466 kts | 358° |
| 2026-05-06 16:17 | 25.84250 | -80.97796 | 40072 ft | 456 kts | 358° |
| 2026-05-06 16:17 | 25.90531 | -80.97526 | 40083 ft | 454 kts | 358° |
| 2026-05-06 16:18 | 25.96837 | -80.97254 | 40081 ft | 453 kts | 358° |
| 2026-05-06 16:18 | 26.03120 | -80.96981 | 40096 ft | 451 kts | 357° |
| 2026-05-06 16:19 | 26.09395 | -80.96707 | 40092 ft | 450 kts | 357° |
| 2026-05-06 16:19 | 26.15666 | -80.96453 | 40090 ft | 454 kts | 357° |
| 2026-05-06 16:20 | 26.18860 | -80.96310 | 40105 ft | 465 kts | 358° |
| 2026-05-06 16:20 | 26.22130 | -80.96150 | 40101 ft | 475 kts | 358° |
| 2026-05-06 16:20 | 26.25468 | -80.96005 | 40103 ft | 486 kts | 357° |
| 2026-05-06 16:20 | 26.28883 | -80.95872 | 40118 ft | 495 kts | 357° |
| 2026-05-06 16:21 | 26.35765 | -80.95561 | 40095 ft | 492 kts | 357° |
| 2026-05-06 16:21 | 26.42611 | -80.95210 | 40082 ft | 493 kts | 0° |
| 2026-05-06 16:22 | 26.49416 | -80.94450 | 40093 ft | 495 kts | 0° |
| 2026-05-06 16:22 | 26.56285 | -80.93721 | 40096 ft | 495 kts | 0° |
| 2026-05-06 16:23 | 26.63142 | -80.92967 | 40092 ft | 495 kts | 360° |
| 2026-05-06 16:23 | 26.70000 | -80.92226 | 40092 ft | 495 kts | 0° |
| 2026-05-06 16:24 | 26.76863 | -80.91477 | 40090 ft | 496 kts | 0° |
| 2026-05-06 16:24 | 26.83731 | -80.90731 | 40111 ft | 495 kts | 0° |
| 2026-05-06 16:25 | 26.90542 | -80.89986 | 40096 ft | 494 kts | 359° |
| 2026-05-06 16:25 | 26.97385 | -80.89240 | 40097 ft | 494 kts | 360° |
| 2026-05-06 16:26 | 27.04236 | -80.88490 | 40102 ft | 495 kts | 360° |
| 2026-05-06 16:26 | 27.11093 | -80.87739 | 40102 ft | 495 kts | 360° |
| 2026-05-06 16:27 | 27.17944 | -80.86988 | 40116 ft | 495 kts | 359° |
| 2026-05-06 16:27 | 27.24815 | -80.86234 | 40106 ft | 495 kts | 359° |
| 2026-05-06 16:28 | 27.31669 | -80.85756 | 40097 ft | 488 kts | 352° |
| 2026-05-06 16:28 | 27.38344 | -80.86706 | 40111 ft | 483 kts | 345° |
| 2026-05-06 16:29 | 27.44948 | -80.87937 | 40111 ft | 483 kts | 345° |
| 2026-05-06 16:29 | 27.51571 | -80.89205 | 40111 ft | 482 kts | 345° |
| 2026-05-06 16:30 | 27.57084 | -80.90246 | 40108 ft | 483 kts | 345° |
| 2026-05-06 16:30 | 27.64850 | -80.91723 | 40105 ft | 485 kts | 345° |
| 2026-05-06 16:31 | 27.71525 | -80.92992 | 40106 ft | 486 kts | 345° |
| 2026-05-06 16:31 | 27.78143 | -80.94253 | 40102 ft | 485 kts | 345° |
| 2026-05-06 16:32 | 27.84809 | -80.95525 | 40093 ft | 486 kts | 345° |
| 2026-05-06 16:32 | 27.91521 | -80.96833 | 40098 ft | 486 kts | 345° |
| 2026-05-06 16:33 | 27.98147 | -80.98114 | 40105 ft | 486 kts | 345° |
| 2026-05-06 16:34 | 28.08150 | -81.00059 | 40126 ft | 486 kts | 344° |
| 2026-05-06 16:34 | 28.14812 | -81.01354 | 40108 ft | 485 kts | 344° |
| 2026-05-06 16:35 | 28.21460 | -81.02650 | 40111 ft | 484 kts | 344° |
| 2026-05-06 16:35 | 28.28115 | -81.03948 | 40106 ft | 485 kts | 344° |
| 2026-05-06 16:36 | 28.34771 | -81.05270 | 40103 ft | 483 kts | 342° |
| 2026-05-06 16:36 | 28.41099 | -81.07577 | 40119 ft | 475 kts | 333° |
| 2026-05-06 16:37 | 28.47241 | -81.10215 | 40122 ft | 475 kts | 334° |
| 2026-05-06 16:37 | 28.53416 | -81.12890 | 40123 ft | 475 kts | 334° |
| 2026-05-06 16:38 | 28.58556 | -81.15111 | 40125 ft | 475 kts | 334° |
| 2026-05-06 16:38 | 28.64742 | -81.17788 | 40124 ft | 475 kts | 334° |
| 2026-05-06 16:39 | 28.70927 | -81.20472 | 40121 ft | 475 kts | 333° |
| 2026-05-06 16:39 | 28.77096 | -81.23148 | 40122 ft | 474 kts | 333° |
| 2026-05-06 16:40 | 28.83259 | -81.25828 | 40116 ft | 473 kts | 333° |
| 2026-05-06 16:40 | 28.89458 | -81.28420 | 40119 ft | 478 kts | 338° |
| 2026-05-06 16:41 | 28.96089 | -81.29809 | 40132 ft | 492 kts | 349° |
| 2026-05-06 16:41 | 29.02922 | -81.30342 | 40150 ft | 491 kts | 348° |
| 2026-05-06 16:42 | 29.09744 | -81.30893 | 40148 ft | 491 kts | 349° |
| 2026-05-06 16:42 | 29.16565 | -81.31430 | 40148 ft | 491 kts | 348° |
| 2026-05-06 16:43 | 29.23348 | -81.31974 | 40135 ft | 492 kts | 349° |
| 2026-05-06 16:43 | 29.30198 | -81.32464 | 40119 ft | 493 kts | 349° |
| 2026-05-06 16:44 | 29.37042 | -81.32864 | 40120 ft | 492 kts | 349° |
| 2026-05-06 16:44 | 29.43877 | -81.33269 | 40122 ft | 492 kts | 349° |
| 2026-05-06 16:45 | 29.50717 | -81.33671 | 40125 ft | 492 kts | 349° |
| 2026-05-06 16:45 | 29.57564 | -81.34077 | 40113 ft | 492 kts | 349° |
| 2026-05-06 16:46 | 29.64402 | -81.34479 | 40115 ft | 491 kts | 349° |
| 2026-05-06 16:46 | 29.71221 | -81.34884 | 40119 ft | 491 kts | 349° |
| 2026-05-06 16:47 | 29.78002 | -81.35286 | 40125 ft | 491 kts | 349° |
| 2026-05-06 16:47 | 29.84822 | -81.35690 | 40140 ft | 492 kts | 348° |
| 2026-05-06 16:48 | 29.91653 | -81.36095 | 40131 ft | 490 kts | 348° |
| 2026-05-06 16:48 | 29.98470 | -81.36501 | 40128 ft | 490 kts | 348° |
| 2026-05-06 16:49 | 30.05279 | -81.36907 | 40127 ft | 490 kts | 348° |
| 2026-05-06 16:49 | 30.12102 | -81.37314 | 40157 ft | 490 kts | 348° |
| 2026-05-06 16:50 | 30.18916 | -81.37720 | 40115 ft | 489 kts | 348° |
| 2026-05-06 16:50 | 30.25698 | -81.38128 | 40116 ft | 487 kts | 348° |
| 2026-05-06 16:51 | 30.32427 | -81.38531 | 40118 ft | 487 kts | 348° |
| 2026-05-06 16:51 | 30.39209 | -81.38938 | 40119 ft | 488 kts | 348° |
| 2026-05-06 16:52 | 30.45994 | -81.39346 | 40119 ft | 488 kts | 348° |
| 2026-05-06 16:52 | 30.52789 | -81.39704 | 40126 ft | 488 kts | 348° |
| 2026-05-06 16:53 | 30.59571 | -81.40062 | 40126 ft | 488 kts | 348° |
| 2026-05-06 16:53 | 30.66364 | -81.40422 | 40127 ft | 489 kts | 348° |
| 2026-05-06 16:54 | 30.73167 | -81.40782 | 40129 ft | 488 kts | 348° |
| 2026-05-06 16:54 | 30.79945 | -81.41143 | 40118 ft | 487 kts | 348° |
| 2026-05-06 16:55 | 30.86719 | -81.41503 | 40108 ft | 487 kts | 348° |
| 2026-05-06 16:55 | 30.93493 | -81.41864 | 40097 ft | 488 kts | 348° |
| 2026-05-06 16:56 | 31.00286 | -81.42226 | 40100 ft | 488 kts | 348° |
| 2026-05-06 16:56 | 31.07064 | -81.42588 | 40103 ft | 487 kts | 348° |
| 2026-05-06 16:57 | 31.13795 | -81.42948 | 40100 ft | 487 kts | 348° |
| 2026-05-06 16:57 | 31.20603 | -81.42983 | 40108 ft | 497 kts | 355° |
| 2026-05-06 16:58 | 31.27533 | -81.41457 | 40110 ft | 517 kts | 6° |
| 2026-05-06 16:58 | 31.30965 | -81.40028 | 40113 ft | 528 kts | 13° |
| 2026-05-06 16:58 | 31.34303 | -81.38165 | 40121 ft | 535 kts | 17° |
| 2026-05-06 16:59 | 31.40927 | -81.34212 | 40107 ft | 534 kts | 17° |
| 2026-05-06 16:59 | 31.47559 | -81.30251 | 40106 ft | 535 kts | 17° |
| 2026-05-06 17:00 | 31.54195 | -81.26280 | 40106 ft | 535 kts | 16° |
| 2026-05-06 17:00 | 31.60806 | -81.22326 | 40357 ft | 525 kts | 17° |
| 2026-05-06 17:00 | 31.64013 | -81.20383 | 40580 ft | 509 kts | 16° |
| 2026-05-06 17:01 | 31.67121 | -81.18510 | 40693 ft | 501 kts | 15° |
| 2026-05-06 17:01 | 31.70236 | -81.16668 | 40924 ft | 500 kts | 15° |
| 2026-05-06 17:01 | 31.73327 | -81.14817 | 41440 ft | 498 kts | 16° |
| 2026-05-06 17:01 | 31.76362 | -81.12970 | 41932 ft | 497 kts | 16° |
| 2026-05-06 17:02 | 31.79433 | -81.11114 | 42390 ft | 496 kts | 15° |
| 2026-05-06 17:02 | 31.82503 | -81.09282 | 42836 ft | 495 kts | 15° |
| 2026-05-06 17:02 | 31.85577 | -81.07440 | 43097 ft | 498 kts | 15° |
| 2026-05-06 17:03 | 31.91853 | -81.03647 | 43095 ft | 515 kts | 16° |
| 2026-05-06 17:03 | 31.98288 | -80.99748 | 43094 ft | 520 kts | 16° |
| 2026-05-06 17:04 | 32.04698 | -80.95868 | 43072 ft | 519 kts | 15° |
| 2026-05-06 17:04 | 32.11153 | -80.91958 | 43089 ft | 523 kts | 16° |
| 2026-05-06 17:05 | 32.17622 | -80.88018 | 43119 ft | 522 kts | 15° |
| 2026-05-06 17:05 | 32.24072 | -80.84101 | 43119 ft | 521 kts | 15° |
| 2026-05-06 17:06 | 32.30515 | -80.80170 | 43116 ft | 521 kts | 15° |
| 2026-05-06 17:06 | 32.36923 | -80.76262 | 43096 ft | 521 kts | 15° |
| 2026-05-06 17:07 | 32.43360 | -80.72325 | 43095 ft | 520 kts | 15° |
| 2026-05-06 17:07 | 32.49787 | -80.68390 | 43093 ft | 520 kts | 15° |
| 2026-05-06 17:08 | 32.56208 | -80.64452 | 43102 ft | 520 kts | 15° |
| 2026-05-06 17:08 | 32.62620 | -80.60511 | 43086 ft | 519 kts | 15° |
| 2026-05-06 17:09 | 32.69030 | -80.56568 | 43086 ft | 518 kts | 15° |
| 2026-05-06 17:09 | 32.75434 | -80.52620 | 43082 ft | 518 kts | 15° |
| 2026-05-06 17:10 | 32.81820 | -80.48678 | 43080 ft | 518 kts | 15° |
| 2026-05-06 17:10 | 32.88220 | -80.44720 | 43080 ft | 517 kts | 15° |
| 2026-05-06 17:11 | 32.94601 | -80.40769 | 43076 ft | 517 kts | 15° |
| 2026-05-06 17:11 | 33.00977 | -80.36812 | 43073 ft | 516 kts | 15° |
| 2026-05-06 17:12 | 33.07342 | -80.32858 | 43074 ft | 515 kts | 15° |
| 2026-05-06 17:12 | 33.13699 | -80.28900 | 43075 ft | 515 kts | 15° |
| 2026-05-06 17:13 | 33.20037 | -80.24949 | 43071 ft | 514 kts | 15° |
| 2026-05-06 17:13 | 33.26373 | -80.20992 | 43078 ft | 513 kts | 15° |
| 2026-05-06 17:14 | 33.32699 | -80.17036 | 43082 ft | 513 kts | 15° |
| 2026-05-06 17:14 | 33.39014 | -80.13077 | 43090 ft | 512 kts | 16° |
| 2026-05-06 17:15 | 33.45293 | -80.09139 | 43090 ft | 512 kts | 16° |
| 2026-05-06 17:15 | 33.51591 | -80.05179 | 43089 ft | 511 kts | 16° |
| 2026-05-06 17:16 | 33.57897 | -80.01209 | 43080 ft | 511 kts | 15° |
| 2026-05-06 17:16 | 33.64191 | -79.97238 | 43085 ft | 510 kts | 15° |
| 2026-05-06 17:17 | 33.70471 | -79.93271 | 43087 ft | 510 kts | 15° |
| 2026-05-06 17:17 | 33.76738 | -79.89304 | 43059 ft | 509 kts | 15° |
| 2026-05-06 17:18 | 33.82972 | -79.85356 | 43054 ft | 509 kts | 15° |
| 2026-05-06 17:18 | 33.89237 | -79.81375 | 43060 ft | 509 kts | 15° |
| 2026-05-06 17:19 | 33.95493 | -79.77398 | 43069 ft | 507 kts | 16° |
| 2026-05-06 17:19 | 34.01734 | -79.73422 | 43069 ft | 506 kts | 16° |
| 2026-05-06 17:20 | 34.07959 | -79.69450 | 43066 ft | 506 kts | 16° |
| 2026-05-06 17:20 | 34.14178 | -79.65474 | 43057 ft | 505 kts | 16° |
| 2026-05-06 17:21 | 34.19347 | -79.62165 | 43052 ft | 505 kts | 16° |
| 2026-05-06 17:21 | 34.25551 | -79.58187 | 43052 ft | 504 kts | 16° |
| 2026-05-06 17:22 | 34.32744 | -79.53569 | 43058 ft | 503 kts | 16° |
| 2026-05-06 17:22 | 34.37922 | -79.50235 | 43062 ft | 502 kts | 16° |
| 2026-05-06 17:23 | 34.44045 | -79.46290 | 43051 ft | 501 kts | 16° |
| 2026-05-06 17:23 | 34.50234 | -79.42296 | 43033 ft | 500 kts | 16° |